Terminal Aerodrome Forecast
Issued by NWS Austin/San Antonio, TX

Home | Current Version | Previous Version | Text Only | Print | Product List | Glossary On
Versions: 1 2 3 4 5 6 7 8 9 10 11 12 13 14 15 16 17 18 19 20
000
FTUS44 KEWX 191700
TAFDRT
TAF
KDRT 191720Z 1918/2018 12008KT P6SM BKN015
     FM191900 12009KT P6SM SCT040 BKN250
     FM192300 12009KT P6SM VCSH SCT050 BKN250
      TEMPO 1923/2003 VRB15KT 3SM TSRA BKN040CB
     FM200600 11007KT P6SM SCT040 BKN200
     FM201100 10007KT P6SM BKN020=

USA.gov is the U.S. government's official web portal to all federal, state and local government web resources and services.